sensor_id;sensor_type;location;lat;lon;timestamp;temperature;humidity
18131;DHT22;9191;54.324;10.126;2023-02-24T00:02:09;5.80;99.90
18131;DHT22;9191;54.324;10.126;2023-02-24T00:04:39;5.80;99.90
18131;DHT22;9191;54.324;10.126;2023-02-24T00:07:07;5.80;99.90
18131;DHT22;9191;54.324;10.126;2023-02-24T00:09:35;5.70;99.90
18131;DHT22;9191;54.324;10.126;2023-02-24T00:12:04;5.70;99.90
18131;DHT22;9191;54.324;10.126;2023-02-24T00:14:35;5.70;99.90
18131;DHT22;9191;54.324;10.126;2023-02-24T00:17:01;5.70;99.90
18131;DHT22;9191;54.324;10.126;2023-02-24T00:19:29;5.60;99.90
18131;DHT22;9191;54.324;10.126;2023-02-24T00:21:56;5.50;99.90
18131;DHT22;9191;54.324;10.126;2023-02-24T00:24:27;5.50;99.90
18131;DHT22;9191;54.324;10.126;2023-02-24T00:26:55;5.50;99.90
18131;DHT22;9191;54.324;10.126;2023-02-24T00:29:23;5.60;99.90
18131;DHT22;9191;54.324;10.126;2023-02-24T00:31:51;5.60;99.90
18131;DHT22;9191;54.324;10.126;2023-02-24T00:34:23;5.70;99.90
18131;DHT22;9191;54.324;10.126;2023-02-24T00:36:52;5.60;99.90
18131;DHT22;9191;54.324;10.126;2023-02-24T00:39:19;5.60;99.90
18131;DHT22;9191;54.324;10.126;2023-02-24T00:41:56;5.70;99.90
18131;DHT22;9191;54.324;10.126;2023-02-24T00:44:29;5.60;99.90
18131;DHT22;9191;54.324;10.126;2023-02-24T00:47:00;5.60;99.90
18131;DHT22;9191;54.324;10.126;2023-02-24T00:49:27;5.50;99.90
18131;DHT22;9191;54.324;10.126;2023-02-24T00:51:54;5.40;99.90
18131;DHT22;9191;54.324;10.126;2023-02-24T00:54:21;5.50;99.90
18131;DHT22;9191;54.324;10.126;2023-02-24T00:56:51;5.50;99.90
18131;DHT22;9191;54.324;10.126;2023-02-24T00:59:20;5.50;99.90
18131;DHT22;9191;54.324;10.126;2023-02-24T01:01:48;5.50;99.90
18131;DHT22;9191;54.324;10.126;2023-02-24T01:04:15;5.60;99.90
18131;DHT22;9191;54.324;10.126;2023-02-24T01:06:47;5.60;99.90
18131;DHT22;9191;54.324;10.126;2023-02-24T01:09:15;5.60;99.90
18131;DHT22;9191;54.324;10.126;2023-02-24T01:11:42;5.50;99.90
18131;DHT22;9191;54.324;10.126;2023-02-24T01:14:52;5.60;99.90
18131;DHT22;9191;54.324;10.126;2023-02-24T01:17:20;5.60;99.90
18131;DHT22;9191;54.324;10.126;2023-02-24T01:19:47;5.60;99.90
18131;DHT22;9191;54.324;10.126;2023-02-24T01:22:14;5.60;99.90
18131;DHT22;9191;54.324;10.126;2023-02-24T01:24:44;5.60;99.90
18131;DHT22;9191;54.324;10.126;2023-02-24T01:27:13;5.60;99.90
18131;DHT22;9191;54.324;10.126;2023-02-24T01:29:41;5.60;99.90
18131;DHT22;9191;54.324;10.126;2023-02-24T01:32:13;5.70;99.90
18131;DHT22;9191;54.324;10.126;2023-02-24T01:34:41;5.60;99.90
18131;DHT22;9191;54.324;10.126;2023-02-24T01:37:07;5.70;99.90
18131;DHT22;9191;54.324;10.126;2023-02-24T01:39:34;5.70;99.90
18131;DHT22;9191;54.324;10.126;2023-02-24T01:42:02;5.70;99.90
18131;DHT22;9191;54.324;10.126;2023-02-24T01:47:19;5.70;99.90
18131;DHT22;9191;54.324;10.126;2023-02-24T01:49:53;5.80;99.90
18131;DHT22;9191;54.324;10.126;2023-02-24T01:52:20;5.70;99.90
18131;DHT22;9191;54.324;10.126;2023-02-24T01:54:49;5.70;99.90
18131;DHT22;9191;54.324;10.126;2023-02-24T01:57:20;5.70;99.90
18131;DHT22;9191;54.324;10.126;2023-02-24T01:59:48;5.70;99.90
18131;DHT22;9191;54.324;10.126;2023-02-24T02:02:18;5.70;99.90
18131;DHT22;9191;54.324;10.126;2023-02-24T02:04:50;5.70;99.90
18131;DHT22;9191;54.324;10.126;2023-02-24T02:07:21;5.80;99.90
18131;DHT22;9191;54.324;10.126;2023-02-24T02:09:49;5.70;99.90
18131;DHT22;9191;54.324;10.126;2023-02-24T02:12:19;5.70;99.90
18131;DHT22;9191;54.324;10.126;2023-02-24T02:14:47;5.60;99.90
18131;DHT22;9191;54.324;10.126;2023-02-24T02:17:17;5.60;99.90
18131;DHT22;9191;54.324;10.126;2023-02-24T02:19:57;5.50;99.90
18131;DHT22;9191;54.324;10.126;2023-02-24T02:22:42;5.40;99.90
18131;DHT22;9191;54.324;10.126;2023-02-24T02:25:12;5.40;99.90
18131;DHT22;9191;54.324;10.126;2023-02-24T02:27:54;5.30;99.90
18131;DHT22;9191;54.324;10.126;2023-02-24T02:30:37;5.40;99.90
18131;DHT22;9191;54.324;10.126;2023-02-24T02:35:57;5.60;99.90
18131;DHT22;9191;54.324;10.126;2023-02-24T02:38:30;5.50;99.90
18131;DHT22;9191;54.324;10.126;2023-02-24T02:41:00;5.50;99.90
18131;DHT22;9191;54.324;10.126;2023-02-24T02:43:29;5.50;99.90
18131;DHT22;9191;54.324;10.126;2023-02-24T02:45:59;5.50;99.90
18131;DHT22;9191;54.324;10.126;2023-02-24T02:48:29;5.60;99.90
18131;DHT22;9191;54.324;10.126;2023-02-24T02:51:01;5.70;99.90
18131;DHT22;9191;54.324;10.126;2023-02-24T02:53:30;5.70;99.90
18131;DHT22;9191;54.324;10.126;2023-02-24T02:56:00;5.60;99.90
18131;DHT22;9191;54.324;10.126;2023-02-24T02:58:33;5.60;99.90
18131;DHT22;9191;54.324;10.126;2023-02-24T03:01:01;5.70;99.90
18131;DHT22;9191;54.324;10.126;2023-02-24T03:03:31;5.70;99.90
18131;DHT22;9191;54.324;10.126;2023-02-24T03:06:02;5.60;99.90
18131;DHT22;9191;54.324;10.126;2023-02-24T03:08:33;5.60;99.90
18131;DHT22;9191;54.324;10.126;2023-02-24T03:11:02;5.70;99.90
18131;DHT22;9191;54.324;10.126;2023-02-24T03:13:30;5.70;99.90
18131;DHT22;9191;54.324;10.126;2023-02-24T03:16:01;5.70;99.90
18131;DHT22;9191;54.324;10.126;2023-02-24T03:18:29;5.60;99.90
18131;DHT22;9191;54.324;10.126;2023-02-24T03:20:57;5.60;99.90
18131;DHT22;9191;54.324;10.126;2023-02-24T03:23:27;5.50;99.90
18131;DHT22;9191;54.324;10.126;2023-02-24T03:25:57;5.60;99.90
18131;DHT22;9191;54.324;10.126;2023-02-24T03:28:28;5.60;99.90
18131;DHT22;9191;54.324;10.126;2023-02-24T03:30:59;5.70;99.90
18131;DHT22;9191;54.324;10.126;2023-02-24T03:33:31;5.60;99.90
18131;DHT22;9191;54.324;10.126;2023-02-24T03:36:03;5.70;99.90
18131;DHT22;9191;54.324;10.126;2023-02-24T03:38:32;5.70;99.90
18131;DHT22;9191;54.324;10.126;2023-02-24T03:41:02;5.70;99.90
18131;DHT22;9191;54.324;10.126;2023-02-24T03:43:31;5.80;99.90
18131;DHT22;9191;54.324;10.126;2023-02-24T03:45:59;5.80;99.90
18131;DHT22;9191;54.324;10.126;2023-02-24T03:48:26;5.80;99.90
18131;DHT22;9191;54.324;10.126;2023-02-24T03:50:53;5.90;99.90
18131;DHT22;9191;54.324;10.126;2023-02-24T03:53:33;5.90;99.90
18131;DHT22;9191;54.324;10.126;2023-02-24T03:56:08;5.80;99.90
18131;DHT22;9191;54.324;10.126;2023-02-24T03:58:41;5.80;99.90
18131;DHT22;9191;54.324;10.126;2023-02-24T04:01:12;5.80;99.90
18131;DHT22;9191;54.324;10.126;2023-02-24T04:03:47;5.80;99.90
18131;DHT22;9191;54.324;10.126;2023-02-24T04:06:17;5.90;99.90
18131;DHT22;9191;54.324;10.126;2023-02-24T04:08:47;5.80;99.90
18131;DHT22;9191;54.324;10.126;2023-02-24T04:11:18;5.80;99.90
18131;DHT22;9191;54.324;10.126;2023-02-24T04:13:49;5.80;99.90
18131;DHT22;9191;54.324;10.126;2023-02-24T04:16:17;5.80;99.90
18131;DHT22;9191;54.324;10.126;2023-02-24T04:18:53;5.90;99.90
18131;DHT22;9191;54.324;10.126;2023-02-24T04:21:22;5.90;99.90
18131;DHT22;9191;54.324;10.126;2023-02-24T04:23:51;5.90;99.90
18131;DHT22;9191;54.324;10.126;2023-02-24T04:26:18;5.90;99.90
18131;DHT22;9191;54.324;10.126;2023-02-24T04:28:46;5.90;99.90
18131;DHT22;9191;54.324;10.126;2023-02-24T04:31:16;5.80;99.90
18131;DHT22;9191;54.324;10.126;2023-02-24T04:33:44;5.80;99.90
18131;DHT22;9191;54.324;10.126;2023-02-24T04:36:15;5.80;99.90
18131;DHT22;9191;54.324;10.126;2023-02-24T04:38:41;5.80;99.90
18131;DHT22;9191;54.324;10.126;2023-02-24T04:41:11;5.80;99.90
18131;DHT22;9191;54.324;10.126;2023-02-24T04:43:42;5.80;99.90
18131;DHT22;9191;54.324;10.126;2023-02-24T04:46:09;5.70;99.90
18131;DHT22;9191;54.324;10.126;2023-02-24T04:48:37;5.70;99.90
18131;DHT22;9191;54.324;10.126;2023-02-24T04:51:04;5.70;99.90
18131;DHT22;9191;54.324;10.126;2023-02-24T04:53:31;5.70;99.90
18131;DHT22;9191;54.324;10.126;2023-02-24T04:56:03;5.70;99.90
18131;DHT22;9191;54.324;10.126;2023-02-24T04:58:35;5.60;99.90
18131;DHT22;9191;54.324;10.126;2023-02-24T05:01:05;5.60;99.90
18131;DHT22;9191;54.324;10.126;2023-02-24T05:03:35;5.50;99.90
18131;DHT22;9191;54.324;10.126;2023-02-24T05:06:02;5.50;99.90
18131;DHT22;9191;54.324;10.126;2023-02-24T05:08:30;5.40;99.90
18131;DHT22;9191;54.324;10.126;2023-02-24T05:10:58;5.30;99.90
18131;DHT22;9191;54.324;10.126;2023-02-24T05:13:28;5.30;99.90
18131;DHT22;9191;54.324;10.126;2023-02-24T05:15:57;5.40;99.90
18131;DHT22;9191;54.324;10.126;2023-02-24T05:18:25;5.20;99.90
18131;DHT22;9191;54.324;10.126;2023-02-24T05:20:56;5.20;99.90
18131;DHT22;9191;54.324;10.126;2023-02-24T05:23:41;5.30;99.90
18131;DHT22;9191;54.324;10.126;2023-02-24T05:26:10;5.30;99.90
18131;DHT22;9191;54.324;10.126;2023-02-24T05:28:37;5.20;99.90
18131;DHT22;9191;54.324;10.126;2023-02-24T05:31:07;5.30;99.90
18131;DHT22;9191;54.324;10.126;2023-02-24T05:33:37;5.20;99.90
18131;DHT22;9191;54.324;10.126;2023-02-24T05:36:04;5.20;99.90
18131;DHT22;9191;54.324;10.126;2023-02-24T05:38:32;5.20;99.90
18131;DHT22;9191;54.324;10.126;2023-02-24T05:41:05;5.20;99.90
18131;DHT22;9191;54.324;10.126;2023-02-24T05:43:32;5.30;99.90
18131;DHT22;9191;54.324;10.126;2023-02-24T05:46:00;5.30;99.90
18131;DHT22;9191;54.324;10.126;2023-02-24T05:48:30;5.30;99.90
18131;DHT22;9191;54.324;10.126;2023-02-24T05:50:59;5.30;99.90
18131;DHT22;9191;54.324;10.126;2023-02-24T05:53:27;5.30;99.90
18131;DHT22;9191;54.324;10.126;2023-02-24T05:55:53;5.30;99.90
18131;DHT22;9191;54.324;10.126;2023-02-24T05:58:20;5.30;99.90
18131;DHT22;9191;54.324;10.126;2023-02-24T06:00:48;5.20;99.90
18131;DHT22;9191;54.324;10.126;2023-02-24T06:03:17;5.30;99.90
18131;DHT22;9191;54.324;10.126;2023-02-24T06:05:56;5.30;99.90
18131;DHT22;9191;54.324;10.126;2023-02-24T06:08:29;5.30;99.90
18131;DHT22;9191;54.324;10.126;2023-02-24T06:11:06;5.30;99.90
18131;DHT22;9191;54.324;10.126;2023-02-24T06:13:34;5.30;99.90
18131;DHT22;9191;54.324;10.126;2023-02-24T06:16:01;5.30;99.90
18131;DHT22;9191;54.324;10.126;2023-02-24T06:18:28;5.30;99.90
18131;DHT22;9191;54.324;10.126;2023-02-24T06:20:56;5.40;99.90
18131;DHT22;9191;54.324;10.126;2023-02-24T06:23:26;5.30;99.90
18131;DHT22;9191;54.324;10.126;2023-02-24T06:25:52;5.20;99.90
18131;DHT22;9191;54.324;10.126;2023-02-24T06:28:22;5.20;99.90
18131;DHT22;9191;54.324;10.126;2023-02-24T06:30:49;5.20;99.90
18131;DHT22;9191;54.324;10.126;2023-02-24T06:33:16;5.30;99.90
18131;DHT22;9191;54.324;10.126;2023-02-24T06:35:42;5.30;99.90
18131;DHT22;9191;54.324;10.126;2023-02-24T06:38:10;5.30;99.90
18131;DHT22;9191;54.324;10.126;2023-02-24T06:40:41;5.30;99.90
18131;DHT22;9191;54.324;10.126;2023-02-24T06:43:08;5.20;99.90
18131;DHT22;9191;54.324;10.126;2023-02-24T06:45:35;5.20;99.90
18131;DHT22;9191;54.324;10.126;2023-02-24T06:48:01;5.30;99.90
18131;DHT22;9191;54.324;10.126;2023-02-24T06:50:28;5.10;99.90
18131;DHT22;9191;54.324;10.126;2023-02-24T06:52:55;5.20;99.90
18131;DHT22;9191;54.324;10.126;2023-02-24T06:55:26;5.20;99.90
18131;DHT22;9191;54.324;10.126;2023-02-24T06:57:53;5.20;99.90
18131;DHT22;9191;54.324;10.126;2023-02-24T07:00:24;5.10;99.90
18131;DHT22;9191;54.324;10.126;2023-02-24T07:03:05;5.10;99.90
18131;DHT22;9191;54.324;10.126;2023-02-24T07:05:41;5.20;99.90
18131;DHT22;9191;54.324;10.126;2023-02-24T07:08:15;5.10;99.90
18131;DHT22;9191;54.324;10.126;2023-02-24T07:10:43;5.10;99.90
18131;DHT22;9191;54.324;10.126;2023-02-24T07:13:10;5.10;99.90
18131;DHT22;9191;54.324;10.126;2023-02-24T07:15:37;5.00;99.90
18131;DHT22;9191;54.324;10.126;2023-02-24T07:18:04;5.00;99.90
18131;DHT22;9191;54.324;10.126;2023-02-24T07:20:39;5.00;99.90
18131;DHT22;9191;54.324;10.126;2023-02-24T07:23:08;5.00;99.90
18131;DHT22;9191;54.324;10.126;2023-02-24T07:25:34;4.90;99.90
18131;DHT22;9191;54.324;10.126;2023-02-24T07:28:04;4.90;99.90
18131;DHT22;9191;54.324;10.126;2023-02-24T07:30:31;5.00;99.90
18131;DHT22;9191;54.324;10.126;2023-02-24T07:32:58;5.00;99.90
18131;DHT22;9191;54.324;10.126;2023-02-24T07:35:25;5.00;99.90
18131;DHT22;9191;54.324;10.126;2023-02-24T07:37:52;4.90;99.90
18131;DHT22;9191;54.324;10.126;2023-02-24T07:40:20;4.90;99.90
18131;DHT22;9191;54.324;10.126;2023-02-24T07:42:47;4.90;99.90
18131;DHT22;9191;54.324;10.126;2023-02-24T07:45:15;4.90;99.90
18131;DHT22;9191;54.324;10.126;2023-02-24T07:47:41;4.80;99.90
18131;DHT22;9191;54.324;10.126;2023-02-24T07:50:09;4.80;99.90
18131;DHT22;9191;54.324;10.126;2023-02-24T07:52:38;4.60;99.90
18131;DHT22;9191;54.324;10.126;2023-02-24T07:55:05;4.60;99.90
18131;DHT22;9191;54.324;10.126;2023-02-24T07:57:33;4.70;99.90
18131;DHT22;9191;54.324;10.126;2023-02-24T08:00:02;4.80;99.90
18131;DHT22;9191;54.324;10.126;2023-02-24T08:02:42;4.80;99.90
18131;DHT22;9191;54.324;10.126;2023-02-24T08:05:09;4.80;99.90
18131;DHT22;9191;54.324;10.126;2023-02-24T08:07:36;4.90;99.90
18131;DHT22;9191;54.324;10.126;2023-02-24T08:10:05;4.90;99.90
18131;DHT22;9191;54.324;10.126;2023-02-24T08:12:38;4.70;99.90
18131;DHT22;9191;54.324;10.126;2023-02-24T08:15:08;4.80;99.90
18131;DHT22;9191;54.324;10.126;2023-02-24T08:17:44;4.80;99.90
18131;DHT22;9191;54.324;10.126;2023-02-24T08:20:14;4.70;99.90
18131;DHT22;9191;54.324;10.126;2023-02-24T08:22:48;4.70;99.90
18131;DHT22;9191;54.324;10.126;2023-02-24T08:25:16;4.70;99.90
18131;DHT22;9191;54.324;10.126;2023-02-24T08:27:44;4.60;99.90
18131;DHT22;9191;54.324;10.126;2023-02-24T08:30:15;4.60;99.90
18131;DHT22;9191;54.324;10.126;2023-02-24T08:32:49;4.60;99.90
18131;DHT22;9191;54.324;10.126;2023-02-24T08:35:22;4.70;99.90
18131;DHT22;9191;54.324;10.126;2023-02-24T08:37:51;4.60;99.90
18131;DHT22;9191;54.324;10.126;2023-02-24T08:40:18;4.60;99.90
18131;DHT22;9191;54.324;10.126;2023-02-24T08:43:04;4.50;99.90
18131;DHT22;9191;54.324;10.126;2023-02-24T08:45:41;4.50;99.90
18131;DHT22;9191;54.324;10.126;2023-02-24T08:48:10;4.50;99.90
18131;DHT22;9191;54.324;10.126;2023-02-24T08:50:51;4.50;99.90
18131;DHT22;9191;54.324;10.126;2023-02-24T08:53:20;4.50;99.90
18131;DHT22;9191;54.324;10.126;2023-02-24T08:55:47;4.50;99.90
18131;DHT22;9191;54.324;10.126;2023-02-24T08:58:21;4.70;99.90
18131;DHT22;9191;54.324;10.126;2023-02-24T09:00:51;4.80;99.90
18131;DHT22;9191;54.324;10.126;2023-02-24T09:03:21;4.80;99.90
18131;DHT22;9191;54.324;10.126;2023-02-24T09:06:02;4.90;99.90
18131;DHT22;9191;54.324;10.126;2023-02-24T09:08:35;4.90;99.90
18131;DHT22;9191;54.324;10.126;2023-02-24T09:11:06;5.00;99.90
18131;DHT22;9191;54.324;10.126;2023-02-24T09:13:34;5.00;99.90
18131;DHT22;9191;54.324;10.126;2023-02-24T09:16:01;7.20;99.90
18131;DHT22;9191;54.324;10.126;2023-02-24T09:18:29;8.60;99.90
18131;DHT22;9191;54.324;10.126;2023-02-24T09:21:09;8.50;99.90
18131;DHT22;9191;54.324;10.126;2023-02-24T09:24:00;7.60;99.90
18131;DHT22;9191;54.324;10.126;2023-02-24T09:26:34;6.90;99.90
18131;DHT22;9191;54.324;10.126;2023-02-24T09:29:08;6.40;99.90
18131;DHT22;9191;54.324;10.126;2023-02-24T09:31:54;6.10;99.90
18131;DHT22;9191;54.324;10.126;2023-02-24T09:34:30;5.90;99.90
18131;DHT22;9191;54.324;10.126;2023-02-24T09:36:57;5.80;99.90
18131;DHT22;9191;54.324;10.126;2023-02-24T09:39:27;5.80;99.90
18131;DHT22;9191;54.324;10.126;2023-02-24T09:42:15;5.80;99.90
18131;DHT22;9191;54.324;10.126;2023-02-24T09:44:59;5.80;99.90
18131;DHT22;9191;54.324;10.126;2023-02-24T09:47:31;5.90;99.90
18131;DHT22;9191;54.324;10.126;2023-02-24T09:50:09;6.00;99.90
18131;DHT22;9191;54.324;10.126;2023-02-24T09:52:39;6.10;99.90
18131;DHT22;9191;54.324;10.126;2023-02-24T09:55:13;6.40;99.90
18131;DHT22;9191;54.324;10.126;2023-02-24T09:57:50;6.80;99.90
18131;DHT22;9191;54.324;10.126;2023-02-24T10:00:49;7.10;99.90
18131;DHT22;9191;54.324;10.126;2023-02-24T10:03:24;7.40;99.90
18131;DHT22;9191;54.324;10.126;2023-02-24T10:06:15;7.60;99.90
18131;DHT22;9191;54.324;10.126;2023-02-24T10:08:46;7.60;99.90
18131;DHT22;9191;54.324;10.126;2023-02-24T10:11:15;7.60;99.90
18131;DHT22;9191;54.324;10.126;2023-02-24T10:13:58;7.40;99.90
18131;DHT22;9191;54.324;10.126;2023-02-24T10:16:26;7.30;99.90
18131;DHT22;9191;54.324;10.126;2023-02-24T10:19:10;7.30;99.90
18131;DHT22;9191;54.324;10.126;2023-02-24T10:21:44;7.30;99.90
18131;DHT22;9191;54.324;10.126;2023-02-24T10:24:15;7.30;99.90
18131;DHT22;9191;54.324;10.126;2023-02-24T10:26:47;7.30;99.90
18131;DHT22;9191;54.324;10.126;2023-02-24T10:29:20;7.30;99.90
18131;DHT22;9191;54.324;10.126;2023-02-24T10:31:54;7.20;99.90
18131;DHT22;9191;54.324;10.126;2023-02-24T10:34:25;7.30;99.90
18131;DHT22;9191;54.324;10.126;2023-02-24T10:36:57;7.50;99.90
18131;DHT22;9191;54.324;10.126;2023-02-24T10:39:25;7.60;99.90
18131;DHT22;9191;54.324;10.126;2023-02-24T10:41:55;7.70;99.90
18131;DHT22;9191;54.324;10.126;2023-02-24T10:44:23;7.80;99.90
18131;DHT22;9191;54.324;10.126;2023-02-24T10:47:00;8.00;99.90
18131;DHT22;9191;54.324;10.126;2023-02-24T10:49:45;8.20;99.90
18131;DHT22;9191;54.324;10.126;2023-02-24T10:52:28;8.50;99.90
18131;DHT22;9191;54.324;10.126;2023-02-24T10:55:06;8.90;99.90
18131;DHT22;9191;54.324;10.126;2023-02-24T10:57:53;9.40;99.90
18131;DHT22;9191;54.324;10.126;2023-02-24T11:00:37;9.60;99.90
18131;DHT22;9191;54.324;10.126;2023-02-24T11:03:25;9.70;99.90
18131;DHT22;9191;54.324;10.126;2023-02-24T11:06:01;9.50;99.90
18131;DHT22;9191;54.324;10.126;2023-02-24T11:08:56;9.10;99.90
18131;DHT22;9191;54.324;10.126;2023-02-24T11:11:42;8.70;99.90
18131;DHT22;9191;54.324;10.126;2023-02-24T11:14:28;8.60;99.90
18131;DHT22;9191;54.324;10.126;2023-02-24T11:17:19;8.70;99.90
18131;DHT22;9191;54.324;10.126;2023-02-24T11:19:55;8.90;99.90
18131;DHT22;9191;54.324;10.126;2023-02-24T11:22:34;9.00;99.90
18131;DHT22;9191;54.324;10.126;2023-02-24T11:25:07;9.10;99.90
18131;DHT22;9191;54.324;10.126;2023-02-24T11:27:39;8.90;99.90
18131;DHT22;9191;54.324;10.126;2023-02-24T11:30:14;8.70;99.90
18131;DHT22;9191;54.324;10.126;2023-02-24T11:32:57;8.70;99.90
18131;DHT22;9191;54.324;10.126;2023-02-24T11:35:32;8.70;99.90
18131;DHT22;9191;54.324;10.126;2023-02-24T11:38:04;8.70;99.90
18131;DHT22;9191;54.324;10.126;2023-02-24T11:40:38;8.80;99.90
18131;DHT22;9191;54.324;10.126;2023-02-24T11:43:05;8.60;99.90
18131;DHT22;9191;54.324;10.126;2023-02-24T11:45:38;8.70;99.90
18131;DHT22;9191;54.324;10.126;2023-02-24T11:48:09;8.70;99.90
18131;DHT22;9191;54.324;10.126;2023-02-24T11:50:40;8.80;99.90
18131;DHT22;9191;54.324;10.126;2023-02-24T11:53:13;8.70;99.90
18131;DHT22;9191;54.324;10.126;2023-02-24T11:55:44;8.80;99.90
18131;DHT22;9191;54.324;10.126;2023-02-24T11:58:16;8.80;99.90
18131;DHT22;9191;54.324;10.126;2023-02-24T12:00:47;8.90;99.90
18131;DHT22;9191;54.324;10.126;2023-02-24T12:03:19;8.70;99.90
18131;DHT22;9191;54.324;10.126;2023-02-24T12:05:53;8.80;99.90
18131;DHT22;9191;54.324;10.126;2023-02-24T12:08:25;8.80;99.90
18131;DHT22;9191;54.324;10.126;2023-02-24T12:10:57;8.90;99.90
18131;DHT22;9191;54.324;10.126;2023-02-24T12:13:31;8.90;99.90
18131;DHT22;9191;54.324;10.126;2023-02-24T12:16:06;8.90;99.90
18131;DHT22;9191;54.324;10.126;2023-02-24T12:18:38;8.80;99.90
18131;DHT22;9191;54.324;10.126;2023-02-24T12:21:10;9.10;99.90
18131;DHT22;9191;54.324;10.126;2023-02-24T12:23:41;9.30;99.90
18131;DHT22;9191;54.324;10.126;2023-02-24T12:26:16;9.60;99.90
18131;DHT22;9191;54.324;10.126;2023-02-24T12:28:57;9.60;99.90
18131;DHT22;9191;54.324;10.126;2023-02-24T12:31:35;9.40;99.90
18131;DHT22;9191;54.324;10.126;2023-02-24T12:34:04;8.70;99.90
18131;DHT22;9191;54.324;10.126;2023-02-24T12:39:21;8.00;99.90
18131;DHT22;9191;54.324;10.126;2023-02-24T12:41:57;7.80;99.90
18131;DHT22;9191;54.324;10.126;2023-02-24T12:44:30;7.70;99.90
18131;DHT22;9191;54.324;10.126;2023-02-24T12:47:03;7.90;99.90
18131;DHT22;9191;54.324;10.126;2023-02-24T12:52:18;8.10;99.90
18131;DHT22;9191;54.324;10.126;2023-02-24T12:54:46;8.30;99.90
18131;DHT22;9191;54.324;10.126;2023-02-24T12:57:24;8.30;99.90
18131;DHT22;9191;54.324;10.126;2023-02-24T12:59:52;8.30;99.90
18131;DHT22;9191;54.324;10.126;2023-02-24T13:02:21;8.30;99.90
18131;DHT22;9191;54.324;10.126;2023-02-24T13:04:52;8.20;99.90
18131;DHT22;9191;54.324;10.126;2023-02-24T13:07:25;8.20;99.90
18131;DHT22;9191;54.324;10.126;2023-02-24T13:10:00;8.20;99.90
18131;DHT22;9191;54.324;10.126;2023-02-24T13:12:32;8.30;99.90
18131;DHT22;9191;54.324;10.126;2023-02-24T13:15:02;8.50;99.90
18131;DHT22;9191;54.324;10.126;2023-02-24T13:17:31;8.70;99.90
18131;DHT22;9191;54.324;10.126;2023-02-24T13:20:07;8.70;99.90
18131;DHT22;9191;54.324;10.126;2023-02-24T13:22:39;8.60;99.90
18131;DHT22;9191;54.324;10.126;2023-02-24T13:25:13;8.40;99.90
18131;DHT22;9191;54.324;10.126;2023-02-24T13:27:52;8.30;99.90
18131;DHT22;9191;54.324;10.126;2023-02-24T13:30:23;8.30;99.90
18131;DHT22;9191;54.324;10.126;2023-02-24T13:32:58;8.30;99.90
18131;DHT22;9191;54.324;10.126;2023-02-24T13:35:28;8.30;99.90
18131;DHT22;9191;54.324;10.126;2023-02-24T13:38:05;8.40;99.90
18131;DHT22;9191;54.324;10.126;2023-02-24T13:40:32;8.50;99.90
18131;DHT22;9191;54.324;10.126;2023-02-24T13:43:01;8.50;99.90
18131;DHT22;9191;54.324;10.126;2023-02-24T13:45:29;8.30;99.90
18131;DHT22;9191;54.324;10.126;2023-02-24T13:48:05;8.30;99.90
18131;DHT22;9191;54.324;10.126;2023-02-24T13:50:34;8.30;99.90
18131;DHT22;9191;54.324;10.126;2023-02-24T13:53:10;8.20;99.90
18131;DHT22;9191;54.324;10.126;2023-02-24T13:55:39;8.20;99.90
18131;DHT22;9191;54.324;10.126;2023-02-24T13:58:29;8.10;99.90
18131;DHT22;9191;54.324;10.126;2023-02-24T14:01:03;8.00;99.90
18131;DHT22;9191;54.324;10.126;2023-02-24T14:03:31;7.90;99.90
18131;DHT22;9191;54.324;10.126;2023-02-24T14:05:58;7.70;99.90
18131;DHT22;9191;54.324;10.126;2023-02-24T14:08:28;7.70;99.90
18131;DHT22;9191;54.324;10.126;2023-02-24T14:10:56;7.60;99.90
18131;DHT22;9191;54.324;10.126;2023-02-24T14:13:25;7.80;99.90
18131;DHT22;9191;54.324;10.126;2023-02-24T14:15:55;7.90;99.90
18131;DHT22;9191;54.324;10.126;2023-02-24T14:18:25;8.10;99.90
18131;DHT22;9191;54.324;10.126;2023-02-24T14:20:52;8.10;99.90
18131;DHT22;9191;54.324;10.126;2023-02-24T14:23:21;8.10;99.90
18131;DHT22;9191;54.324;10.126;2023-02-24T14:25:52;8.10;99.90
18131;DHT22;9191;54.324;10.126;2023-02-24T14:28:21;8.20;99.90
18131;DHT22;9191;54.324;10.126;2023-02-24T14:30:51;8.10;99.90
18131;DHT22;9191;54.324;10.126;2023-02-24T14:33:22;8.10;99.90
18131;DHT22;9191;54.324;10.126;2023-02-24T14:35:51;8.10;99.90
18131;DHT22;9191;54.324;10.126;2023-02-24T14:38:31;7.90;99.90
18131;DHT22;9191;54.324;10.126;2023-02-24T14:40:58;7.90;99.90
18131;DHT22;9191;54.324;10.126;2023-02-24T14:43:27;7.70;99.90
18131;DHT22;9191;54.324;10.126;2023-02-24T14:45:55;7.60;99.90
18131;DHT22;9191;54.324;10.126;2023-02-24T14:48:25;7.50;99.90
18131;DHT22;9191;54.324;10.126;2023-02-24T14:50:53;7.40;99.90
18131;DHT22;9191;54.324;10.126;2023-02-24T14:53:21;7.30;99.90
18131;DHT22;9191;54.324;10.126;2023-02-24T14:55:50;7.30;99.90
18131;DHT22;9191;54.324;10.126;2023-02-24T14:58:20;7.30;99.90
18131;DHT22;9191;54.324;10.126;2023-02-24T15:00:50;7.30;99.90
18131;DHT22;9191;54.324;10.126;2023-02-24T15:03:19;7.30;99.90
18131;DHT22;9191;54.324;10.126;2023-02-24T15:05:51;7.20;99.90
18131;DHT22;9191;54.324;10.126;2023-02-24T15:08:28;7.20;99.90
18131;DHT22;9191;54.324;10.126;2023-02-24T15:10:56;7.30;99.90
18131;DHT22;9191;54.324;10.126;2023-02-24T15:13:26;7.20;99.90
18131;DHT22;9191;54.324;10.126;2023-02-24T15:15:53;7.30;99.90
18131;DHT22;9191;54.324;10.126;2023-02-24T15:18:22;7.30;99.90
18131;DHT22;9191;54.324;10.126;2023-02-24T15:20:59;7.30;99.90
18131;DHT22;9191;54.324;10.126;2023-02-24T15:23:28;7.40;99.90
18131;DHT22;9191;54.324;10.126;2023-02-24T15:25:56;7.50;99.90
18131;DHT22;9191;54.324;10.126;2023-02-24T15:28:23;7.60;99.90
18131;DHT22;9191;54.324;10.126;2023-02-24T15:30:56;7.60;99.90
18131;DHT22;9191;54.324;10.126;2023-02-24T15:33:24;7.60;99.90
18131;DHT22;9191;54.324;10.126;2023-02-24T15:35:51;7.60;99.90
18131;DHT22;9191;54.324;10.126;2023-02-24T15:38:21;7.60;99.90
18131;DHT22;9191;54.324;10.126;2023-02-24T15:40:52;7.60;99.90
18131;DHT22;9191;54.324;10.126;2023-02-24T15:43:29;7.60;99.90
18131;DHT22;9191;54.324;10.126;2023-02-24T15:45:56;7.40;99.90
18131;DHT22;9191;54.324;10.126;2023-02-24T15:48:24;7.30;99.90
18131;DHT22;9191;54.324;10.126;2023-02-24T15:50:54;7.30;99.90
18131;DHT22;9191;54.324;10.126;2023-02-24T15:53:26;7.20;99.90
18131;DHT22;9191;54.324;10.126;2023-02-24T15:55:53;7.20;99.90
18131;DHT22;9191;54.324;10.126;2023-02-24T15:58:20;7.20;99.90
18131;DHT22;9191;54.324;10.126;2023-02-24T16:00:47;7.20;99.90
18131;DHT22;9191;54.324;10.126;2023-02-24T16:03:17;7.10;99.90
18131;DHT22;9191;54.324;10.126;2023-02-24T16:05:44;7.10;99.90
18131;DHT22;9191;54.324;10.126;2023-02-24T16:08:15;7.00;99.90
18131;DHT22;9191;54.324;10.126;2023-02-24T16:10:44;6.90;99.90
18131;DHT22;9191;54.324;10.126;2023-02-24T16:13:13;6.90;99.90
18131;DHT22;9191;54.324;10.126;2023-02-24T16:15:50;6.80;99.90
18131;DHT22;9191;54.324;10.126;2023-02-24T16:18:22;6.70;99.90
18131;DHT22;9191;54.324;10.126;2023-02-24T16:20:53;6.70;99.90
18131;DHT22;9191;54.324;10.126;2023-02-24T16:23:21;6.70;99.90